Baltimora, MD (21206)

07:06 AM EDT del 29 Marzo 2017 (GMT -0400)
Thompson - Parkville | | Change Station

Alt. 330 ft 39.36 °N, 76.54 °W | Updated 10 seconds ago

Parzialmente nuvoloso
Parzialmente nuvoloso
47.1 °F
Sembra 44 °F
N
6.0
Vento Variabile Vento da NE

Oggi
Massima -- | Minima -- °F
--% Possibilità di precip.
Ieri
Massima -- | Minima -- °F
Precip. -- in
Pressione 30.07 in
Visibilità 10.0 miglia
Nuvole Sereno
Raffreddamento del vento 44 °F
Punto di rugiada 39 °F
Umidità 74%
Piovosità 0.00 in
Spessore del manto nevoso Non disponibile.
6:54 AM 7:27 PM
Luna crescente, 3% visible
METAR KMTN 291045Z 34010G17KT 10SM SKC 11/06 A3007
Pressione 30.07 in
Visibilità 10.0 miglia
Nuvole Sereno
Raffreddamento del vento 44 °F
Punto di rugiada 39 °F
Umidità 74%
Piovosità 0.00 in
Spessore del manto nevoso Non disponibile.
6:54 AM 7:27 PM
Luna crescente, 3% visible
METAR KMTN 291045Z 34010G17KT 10SM SKC 11/06 A3007

Get Severe Weather Alerts

Thanks for signing up!

Be on the lookout for a verification email in your inbox.

You'll start receiving the daily forecast at 8 AM.

×

10-Day Weather Forecast

Almanac

Astronomia

Mar. 29, 2017 Alba Tramonto
Ora attuale
Crepuscolo civile
Crepuscolo nautico
Crepuscolo astronomico
Luna
Estensione della luce visibile
Lunghezza del giorno
Tomorrow will be .
, % of the Moon is Illuminated

Gli estremi di oggi

State Highs State Lows

Community

WunderPhotos

Upload Photos

1,962,540 foto caricate!

WunderBlog® & News

Nearby

Qualità dell'aria

  Qualità dell'aria Indice AQ Inquinante
Not available.

Profondità neve

Stazione Profondità Altitudine

Attività sismica

Città  Distanza Mag. Data & Ora
Minimo Magnitudo Mostrato è 2.5.

Attività sismica

Città  Distanza Mag. Data & Ora
Minimo Magnitudo Mostrato è 2.5.

Temperature delle acque costiere

Località Temperatura

Stations

Stazioni meteo nelle vicinanze

Ubicazione della stazione Temp. Raffreddamento del vento Punto di rugiada Umidità Vento Precip. Alt. Aggiornato Tipo
                   

Watches & Warnings

There are currently no watches in effect.